Time;durP1;ratioP1;P1;durP2;ratioP2;P2;SDS_P1;SDS_P2;PMS_P1;PMS_P2;Temp;Humidity;BMP_temperature;BMP_pressure;BME280_temperature;BME280_humidity;BME280_pressure;Samples;Min_cycle;Max_cycle;Signal;HPM_P1;HPM_P2
2022/10/07 00:00:45;;;;;;;;;;;;;;;20.81;42.59;102036.95;104749;1306;60503;-84
2022/10/07 00:03:11;;;;;;;;;;;;;;;20.80;42.81;102034.63;104738;1305;60648;-84
2022/10/07 00:05:36;;;;;;;;;;;;;;;20.80;42.59;102035.70;104768;1305;60578;-84
2022/10/07 00:08:02;;;;;;;;;;;;;;;20.80;42.61;102032.48;104781;1305;60567;-81
2022/10/07 00:10:28;;;;;;;;;;;;;;;20.80;42.58;102031.96;104779;1306;71624;-83
2022/10/07 00:12:54;;;;;;;;;;;;;;;20.80;42.61;102036.43;104665;1307;60482;-85
2022/10/07 00:15:22;;;;;;;;;;;;;;;20.80;42.55;102034.13;104748;1306;60426;-84
2022/10/07 00:17:48;;;;;;;;;;;;;;;20.80;42.69;102037.31;104783;1306;61286;-83
2022/10/07 00:20:14;;;;;;;;;;;;;;;20.80;42.64;102039.32;104683;1306;61060;-83
2022/10/07 00:22:46;;;;;;;;;;;;;;;20.80;42.60;102036.64;104733;1306;60454;-84
2022/10/07 00:25:11;;;;;;;;;;;;;;;20.79;42.59;102042.38;104682;1306;60367;-83
2022/10/07 00:27:37;;;;;;;;;;;;;;;20.79;42.74;102039.87;104847;1305;60512;-84
2022/10/07 00:30:03;;;;;;;;;;;;;;;20.79;42.70;102040.08;104759;1306;61002;-86
2022/10/07 00:32:29;;;;;;;;;;;;;;;20.79;42.66;102043.66;104767;1306;61701;-84
2022/10/07 00:34:54;;;;;;;;;;;;;;;20.79;42.65;102047.58;104666;1307;60587;-86
2022/10/07 00:37:20;;;;;;;;;;;;;;;20.79;42.57;102044.01;104731;1306;60468;-83
2022/10/07 00:40:12;;;;;;;;;;;;;;;20.79;42.83;102047.21;104889;1306;61712;-86
2022/10/07 00:42:39;;;;;;;;;;;;;;;20.78;42.57;102044.56;104401;1312;72948;-83
2022/10/07 00:45:08;;;;;;;;;;;;;;;20.79;42.64;102036.67;104365;1312;73546;-85
2022/10/07 00:47:33;;;;;;;;;;;;;;;20.79;42.77;102037.94;104338;1312;61306;-86
2022/10/07 00:50:08;;;;;;;;;;;;;;;20.78;42.51;102032.58;104466;1312;60496;-86
2022/10/07 00:52:37;;;;;;;;;;;;;;;20.78;42.44;102025.61;104399;1312;72628;-84
2022/10/07 00:55:05;;;;;;;;;;;;;;;20.78;42.59;102025.95;104372;1312;73942;-87
2022/10/07 00:57:35;;;;;;;;;;;;;;;20.78;42.62;102029.55;104346;1312;60544;-83
2022/10/07 01:00:01;;;;;;;;;;;;;;;20.78;42.62;102029.56;104277;1312;60801;-88
2022/10/07 01:02:27;;;;;;;;;;;;;;;20.78;42.63;102023.65;104353;1312;60489;-84
2022/10/07 01:04:52;;;;;;;;;;;;;;;20.78;42.65;102025.80;104319;1312;60768;-87
2022/10/07 01:07:21;;;;;;;;;;;;;;;20.78;42.55;102025.09;104357;1312;60518;-88
2022/10/07 01:09:49;;;;;;;;;;;;;;;20.77;42.44;102025.11;104340;1312;60659;-81
2022/10/07 01:12:16;;;;;;;;;;;;;;;20.77;42.61;102022.96;104364;1312;73922;-85
2022/10/07 01:15:18;;;;;;;;;;;;;;;20.77;42.63;102027.45;104417;1311;73015;-85
2022/10/07 01:17:52;;;;;;;;;;;;;;;20.77;42.68;102031.73;103899;1317;60425;-86
2022/10/07 01:20:21;;;;;;;;;;;;;;;20.76;42.66;102028.54;104170;1315;60353;-84
2022/10/07 01:23:07;;;;;;;;;;;;;;;20.77;42.61;102025.66;104335;1313;72526;-84
2022/10/07 01:25:35;;;;;;;;;;;;;;;20.77;42.67;102026.18;104100;1316;75013;-86
2022/10/07 01:28:06;;;;;;;;;;;;;;;20.77;42.64;102028.52;104118;1316;61497;-84
2022/10/07 01:30:32;;;;;;;;;;;;;;;20.77;42.65;102031.20;104073;1316;61525;-84
2022/10/07 01:33:00;;;;;;;;;;;;;;;20.76;42.56;102033.02;104123;1316;60475;-83
2022/10/07 01:35:26;;;;;;;;;;;;;;;20.77;42.51;102028.34;104107;1316;73809;-84
2022/10/07 01:37:53;;;;;;;;;;;;;;;20.76;42.54;102029.08;104137;1316;59437;-83
2022/10/07 01:40:19;;;;;;;;;;;;;;;20.76;42.60;102031.23;104130;1316;60509;-83
2022/10/07 01:42:47;;;;;;;;;;;;;;;20.77;42.63;102033.16;104089;1316;60687;-84
2022/10/07 01:45:14;;;;;;;;;;;;;;;20.77;42.44;102034.80;104103;1318;75366;-85
2022/10/07 01:47:41;;;;;;;;;;;;;;;20.76;42.62;102033.91;104130;1316;60646;-84
2022/10/07 01:50:10;;;;;;;;;;;;;;;20.76;42.65;102037.14;104120;1316;60702;-84
2022/10/07 01:52:41;;;;;;;;;;;;;;;20.76;42.57;102032.34;104089;1317;74515;-83
2022/10/07 01:55:10;;;;;;;;;;;;;;;20.76;42.63;102028.92;104440;1311;73837;-83
2022/10/07 01:57:40;;;;;;;;;;;;;;;20.76;42.63;102027.86;104361;1312;60122;-84
2022/10/07 02:00:09;;;;;;;;;;;;;;;20.76;42.28;102032.84;104461;1312;60498;-84
2022/10/07 02:02:40;;;;;;;;;;;;;;;20.75;42.39;102027.88;104439;1306;72758;-83
2022/10/07 02:05:11;;;;;;;;;;;;;;;20.76;42.60;102027.87;104865;1306;73991;-85
2022/10/07 02:07:50;;;;;;;;;;;;;;;20.75;42.53;102025.91;104863;1306;60386;-84
2022/10/07 02:10:25;;;;;;;;;;;;;;;20.75;42.61;102024.31;104860;1306;60838;-84
2022/10/07 02:12:53;;;;;;;;;;;;;;;20.75;42.46;102023.94;104695;1306;73717;-84
2022/10/07 02:15:23;;;;;;;;;;;;;;;20.75;42.55;102023.77;104715;1306;73883;-87
2022/10/07 02:17:49;;;;;;;;;;;;;;;20.76;42.44;102029.12;104897;1306;60623;-84
2022/10/07 02:20:15;;;;;;;;;;;;;;;20.75;42.31;102025.04;104745;1306;60392;-85
2022/10/07 02:22:41;;;;;;;;;;;;;;;20.75;42.49;102026.83;104752;1306;60553;-83
2022/10/07 02:25:07;;;;;;;;;;;;;;;20.75;42.39;102022.91;104785;1306;60497;-84
2022/10/07 02:27:35;;;;;;;;;;;;;;;20.75;42.41;102023.44;104878;1306;60878;-88
2022/10/07 02:30:09;;;;;;;;;;;;;;;20.75;42.57;102021.29;104780;1306;60590;-83
2022/10/07 02:32:35;;;;;;;;;;;;;;;20.74;42.47;102017.73;104871;1306;72638;-85
2022/10/07 02:35:03;;;;;;;;;;;;;;;20.75;42.78;102019.52;104673;1307;61338;-85
2022/10/07 02:37:31;;;;;;;;;;;;;;;20.75;42.59;102018.09;104894;1305;59944;-85
2022/10/07 02:39:57;;;;;;;;;;;;;;;20.74;42.51;102015.77;104764;1306;61531;-84
2022/10/07 02:42:25;;;;;;;;;;;;;;;20.74;42.48;102016.50;104742;1306;60447;-83
2022/10/07 02:44:55;;;;;;;;;;;;;;;20.74;42.47;102018.30;104866;1306;73991;-83
2022/10/07 02:47:24;;;;;;;;;;;;;;;20.74;42.66;102017.58;104876;1306;61435;-85
2022/10/07 02:49:52;;;;;;;;;;;;;;;20.74;42.51;102021.70;104886;1306;60779;-83
2022/10/07 02:52:18;;;;;;;;;;;;;;;20.74;42.49;102019.92;104573;1306;72731;-84
2022/10/07 02:55:05;;;;;;;;;;;;;;;20.73;42.44;102022.79;104781;1306;60562;-84
2022/10/07 02:57:32;;;;;;;;;;;;;;;20.73;42.50;102024.26;104794;1306;60796;-84
2022/10/07 02:59:57;;;;;;;;;;;;;;;20.73;42.38;102027.46;104768;1305;60412;-85
2022/10/07 03:02:25;;;;;;;;;;;;;;;20.73;42.42;102034.77;104782;1306;60571;-85
2022/10/07 03:04:51;;;;;;;;;;;;;;;20.73;42.43;102037.48;104751;1306;73965;-87
2022/10/07 03:07:16;;;;;;;;;;;;;;;20.73;42.23;102041.94;104880;1306;60498;-85
2022/10/07 03:09:42;;;;;;;;;;;;;;;20.74;42.30;102038.71;104687;1306;60649;-84
2022/10/07 03:12:15;;;;;;;;;;;;;;;20.73;42.49;102039.45;104750;1306;60442;-83
2022/10/07 03:14:40;;;;;;;;;;;;;;;20.73;42.56;102037.66;104572;1306;74784;-83
2022/10/07 03:17:06;;;;;;;;;;;;;;;20.73;42.43;102037.30;104896;1306;61301;-84
2022/10/07 03:19:34;;;;;;;;;;;;;;;20.73;42.48;102038.58;104890;1306;60488;-86
2022/10/07 03:22:01;;;;;;;;;;;;;;;20.73;42.52;102041.45;104629;1306;60453;-82
2022/10/07 03:24:27;;;;;;;;;;;;;;;20.73;42.42;102044.46;104711;1306;60494;-83
2022/10/07 03:26:56;;;;;;;;;;;;;;;20.72;42.36;102039.84;104889;1306;60520;-84
2022/10/07 03:29:21;;;;;;;;;;;;;;;20.72;42.36;102039.31;104773;1306;60471;-84
2022/10/07 03:31:47;;;;;;;;;;;;;;;20.72;42.34;102041.30;104572;1309;60577;-82
2022/10/07 03:34:13;;;;;;;;;;;;;;;20.72;42.40;102041.10;104627;1306;60456;-84
2022/10/07 03:36:43;;;;;;;;;;;;;;;20.71;42.46;102046.33;104899;1306;60442;-85
2022/10/07 03:39:11;;;;;;;;;;;;;;;20.69;42.14;102048.59;104774;1304;60379;-91
2022/10/07 03:41:36;;;;;;;;;;;;;;;20.67;42.27;102051.34;104878;1306;60481;-85
2022/10/07 03:44:02;;;;;;;;;;;;;;;20.65;42.15;102054.48;104788;1306;60557;-89
2022/10/07 03:46:28;;;;;;;;;;;;;;;20.63;41.85;102050.34;104643;1306;60608;-86
2022/10/07 03:48:53;;;;;;;;;;;;;;;20.60;41.82;102053.10;104694;1306;60580;-84
2022/10/07 03:51:24;;;;;;;;;;;;;;;20.59;41.88;102052.09;104754;1306;60479;-85
2022/10/07 03:53:53;;;;;;;;;;;;;;;20.58;41.69;102052.33;104572;1309;74005;-85
2022/10/07 03:56:22;;;;;;;;;;;;;;;20.57;41.70;102058.42;104759;1306;60357;-86
2022/10/07 03:58:48;;;;;;;;;;;;;;;20.56;41.80;102059.38;104877;1306;60373;-81
2022/10/07 04:01:16;;;;;;;;;;;;;;;20.55;41.71;102057.11;104770;1306;60445;-87
2022/10/07 04:03:42;;;;;;;;;;;;;;;20.54;41.56;102058.26;104759;1306;73704;-86
2022/10/07 04:06:09;;;;;;;;;;;;;;;20.53;41.70;102064.55;104778;1305;60485;-89
2022/10/07 04:08:37;;;;;;;;;;;;;;;20.53;41.55;102066.54;104679;1306;60462;-85
2022/10/07 04:11:03;;;;;;;;;;;;;;;20.52;41.48;102069.27;104741;1306;74198;-83
2022/10/07 04:13:32;;;;;;;;;;;;;;;20.51;41.48;102068.77;104658;1306;73948;-88
2022/10/07 04:16:01;;;;;;;;;;;;;;;20.51;41.45;102072.53;104698;1306;61117;-87
2022/10/07 04:18:30;;;;;;;;;;;;;;;20.50;41.43;102072.20;104770;1306;60556;-83
2022/10/07 04:20:58;;;;;;;;;;;;;;;20.50;41.37;102074.52;104894;1306;60462;-84
2022/10/07 04:23:23;;;;;;;;;;;;;;;20.50;41.31;102077.59;104888;1306;73910;-85
2022/10/07 04:25:58;;;;;;;;;;;;;;;20.50;41.33;102076.88;104849;1306;60469;-85
2022/10/07 04:28:24;;;;;;;;;;;;;;;20.49;41.18;102079.96;104814;1306;61338;-85
2022/10/07 04:30:50;;;;;;;;;;;;;;;20.48;41.34;102082.89;104709;1306;72900;-85
2022/10/07 04:33:16;;;;;;;;;;;;;;;20.45;41.31;102084.42;104593;1307;60529;-84
2022/10/07 04:35:43;;;;;;;;;;;;;;;20.44;41.09;102090.73;104682;1306;60380;-83
2022/10/07 04:38:10;;;;;;;;;;;;;;;20.42;41.23;102090.83;104642;1306;60597;-84
2022/10/07 04:40:39;;;;;;;;;;;;;;;20.40;41.04;102082.52;104526;1306;60682;-85
2022/10/07 04:43:22;;;;;;;;;;;;;;;20.37;41.14;102084.09;104742;1306;72871;-83
2022/10/07 04:45:51;;;;;;;;;;;;;;;20.35;41.15;102085.13;104814;1306;60586;-83
2022/10/07 04:48:17;;;;;;;;;;;;;;;20.32;41.07;102082.38;104675;1306;61476;-84
2022/10/07 04:50:43;;;;;;;;;;;;;;;20.31;41.01;102084.05;104673;1307;59304;-84
2022/10/07 04:53:15;;;;;;;;;;;;;;;20.31;41.26;102087.96;104529;1306;58887;-84
2022/10/07 04:55:42;;;;;;;;;;;;;;;20.30;41.04;102080.86;104584;1306;60682;-81
2022/10/07 04:58:08;;;;;;;;;;;;;;;20.25;40.91;102081.25;104305;1306;60530;-84
2022/10/07 05:00:34;;;;;;;;;;;;;;;20.23;41.00;102078.87;104401;1306;60477;-84
2022/10/07 05:03:00;;;;;;;;;;;;;;;20.23;40.91;102075.66;104647;1306;60446;-84
2022/10/07 05:05:26;;;;;;;;;;;;;;;20.23;41.09;102075.80;104592;1306;60497;-84
2022/10/07 05:07:51;;;;;;;;;;;;;;;20.24;40.91;102077.57;104514;1306;59410;-84
2022/10/07 05:10:17;;;;;;;;;;;;;;;20.25;41.27;102082.34;104453;1309;60676;-83
2022/10/07 05:12:42;;;;;;;;;;;;;;;20.26;40.89;102082.30;105434;1306;58525;-83
2022/10/07 05:15:09;;;;;;;;;;;;;;;20.27;41.13;102084.94;104730;1306;72862;-82
2022/10/07 05:17:34;;;;;;;;;;;;;;;20.29;41.03;102082.55;104960;1306;59352;-84
2022/10/07 05:20:01;;;;;;;;;;;;;;;20.30;40.89;102085.20;104611;1306;60487;-84
2022/10/07 05:22:26;;;;;;;;;;;;;;;20.30;41.01;102087.48;104744;1306;60389;-83
2022/10/07 05:24:53;;;;;;;;;;;;;;;20.31;40.89;102093.34;104461;1306;60542;-86
2022/10/07 05:27:18;;;;;;;;;;;;;;;20.31;40.88;102098.52;104459;1306;60493;-84
2022/10/07 05:29:44;;;;;;;;;;;;;;;20.31;40.77;102102.45;104494;1306;59718;-84
2022/10/07 05:32:09;;;;;;;;;;;;;;;20.31;40.91;102104.40;104576;1306;60654;-84
2022/10/07 05:34:35;;;;;;;;;;;;;;;20.31;40.71;102105.12;104616;1306;74022;-83
2022/10/07 05:37:00;;;;;;;;;;;;;;;20.30;40.86;102107.31;104652;1306;60502;-83
2022/10/07 05:39:26;;;;;;;;;;;;;;;20.30;40.70;102107.86;104457;1306;60583;-82
2022/10/07 05:41:51;;;;;;;;;;;;;;;20.30;40.60;102108.23;104502;1306;60571;-85
2022/10/07 05:44:17;;;;;;;;;;;;;;;20.29;40.76;102108.29;104541;1306;59994;-86
2022/10/07 05:46:42;;;;;;;;;;;;;;;20.28;40.63;102107.43;104559;1306;74065;-83
2022/10/07 05:49:08;;;;;;;;;;;;;;;20.28;40.67;102108.84;104508;1306;60523;-82
2022/10/07 05:51:34;;;;;;;;;;;;;;;20.28;40.52;102110.84;104593;1306;61358;-83
2022/10/07 05:54:00;;;;;;;;;;;;;;;20.28;40.70;102111.17;104442;1306;60561;-83
2022/10/07 05:56:26;;;;;;;;;;;;;;;20.24;40.55;102113.89;104534;1306;59291;-84
2022/10/07 05:58:51;;;;;;;;;;;;;;;20.12;40.73;102119.25;104501;1306;60436;-83
2022/10/07 06:01:19;;;;;;;;;;;;;;;20.06;40.81;102117.17;104587;1306;60429;-83
2022/10/07 06:03:48;;;;;;;;;;;;;;;20.06;40.63;102121.48;104556;1306;61147;-84
2022/10/07 06:06:14;;;;;;;;;;;;;;;20.03;40.75;102121.81;104600;1306;60848;-83
2022/10/07 06:08:52;;;;;;;;;;;;;;;20.05;40.97;102117.07;105398;1305;73858;-83
2022/10/07 06:14:01;;;;;;;;;;;;;;;20.11;40.92;102117.69;104584;1306;60367;-83
2022/10/07 06:16:27;;;;;;;;;;;;;;;20.13;40.94;102117.92;104536;1306;59357;-83
2022/10/07 06:18:52;;;;;;;;;;;;;;;20.15;40.83;102120.19;104465;1306;60558;-83
2022/10/07 06:21:18;;;;;;;;;;;;;;;20.16;40.82;102118.52;104487;1306;61002;-84
2022/10/07 06:23:48;;;;;;;;;;;;;;;20.17;40.79;102117.92;104694;1306;60546;-82
2022/10/07 06:26:14;;;;;;;;;;;;;;;20.18;40.80;102117.34;104639;1306;60356;-82
2022/10/07 06:28:40;;;;;;;;;;;;;;;20.19;40.82;102116.42;104493;1306;60334;-82
2022/10/07 06:31:06;;;;;;;;;;;;;;;20.19;40.72;102120.17;104535;1306;60847;-83
2022/10/07 06:33:32;;;;;;;;;;;;;;;20.20;40.69;102121.91;105177;1306;59290;-83
2022/10/07 06:36:27;;;;;;;;;;;;;;;20.21;40.70;102124.36;104453;1306;60481;-83
2022/10/07 06:39:06;;;;;;;;;;;;;;;20.20;40.71;102124.21;104466;1305;71505;-84
2022/10/07 06:41:31;;;;;;;;;;;;;;;20.19;40.68;102126.95;104312;1306;74220;-83
2022/10/07 06:44:03;;;;;;;;;;;;;;;20.14;40.52;102127.05;104408;1306;59616;-85
2022/10/07 06:46:58;;;;;;;;;;;;;;;20.13;40.64;102132.42;104564;1306;60418;-84
2022/10/07 06:49:24;;;;;;;;;;;;;;;20.15;40.66;102132.70;104041;1312;72502;-83
2022/10/07 06:51:50;;;;;;;;;;;;;;;20.15;40.48;102132.86;104072;1312;60606;-82
2022/10/07 06:54:16;;;;;;;;;;;;;;;20.14;40.58;102133.98;104003;1312;59423;-84
2022/10/07 06:56:41;;;;;;;;;;;;;;;20.09;40.47;102128.30;104072;1312;60782;-84
2022/10/07 06:59:10;;;;;;;;;;;;;;;20.03;40.48;102129.47;103982;1312;59238;-84
2022/10/07 07:01:35;;;;;;;;;;;;;;;19.94;40.57;102126.66;103981;1312;60482;-84
2022/10/07 07:04:01;;;;;;;;;;;;;;;19.85;40.52;102123.70;104012;1312;60623;-83
2022/10/07 07:06:26;;;;;;;;;;;;;;;19.79;40.39;102119.13;104051;1312;60722;-84
2022/10/07 07:08:57;;;;;;;;;;;;;;;19.74;40.56;102119.30;104049;1312;61294;-82
2022/10/07 07:11:35;;;;;;;;;;;;;;;19.72;40.58;102117.48;104221;1312;70778;-83
2022/10/07 07:14:02;;;;;;;;;;;;;;;19.73;40.69;102122.58;104164;1312;72608;-82
2022/10/07 07:16:28;;;;;;;;;;;;;;;19.79;40.63;102120.17;104118;1312;60352;-83
2022/10/07 07:18:54;;;;;;;;;;;;;;;19.85;40.65;102129.04;104158;1312;59916;-84
2022/10/07 07:21:20;;;;;;;;;;;;;;;19.90;40.88;102128.62;104084;1312;60374;-84
2022/10/07 07:23:46;;;;;;;;;;;;;;;19.96;41.04;102131.07;104085;1312;60370;-83
2022/10/07 07:26:12;;;;;;;;;;;;;;;19.96;40.83;102127.86;104342;1306;60582;-84
2022/10/07 07:28:38;;;;;;;;;;;;;;;19.89;41.02;102124.92;104339;1309;60933;-84
2022/10/07 07:31:08;;;;;;;;;;;;;;;19.83;40.94;102129.33;104655;1306;60474;-84
2022/10/07 07:33:36;;;;;;;;;;;;;;;19.78;41.10;102125.94;104560;1306;74473;-84
2022/10/07 07:36:07;;;;;;;;;;;;;;;19.75;41.17;102121.59;104557;1306;61864;-83
2022/10/07 07:38:32;;;;;;;;;;;;;;;19.71;41.17;102117.13;104656;1306;60395;-85
2022/10/07 07:41:03;;;;;;;;;;;;;;;19.73;41.16;102119.70;104618;1305;60481;-83
2022/10/07 07:43:28;;;;;;;;;;;;;;;19.78;41.17;102124.88;104542;1306;76165;-83
2022/10/07 07:45:57;;;;;;;;;;;;;;;19.74;41.10;102120.55;104695;1306;60587;-90
2022/10/07 07:48:22;;;;;;;;;;;;;;;19.71;41.18;102120.33;104555;1305;60357;-84
2022/10/07 07:50:48;;;;;;;;;;;;;;;19.75;41.43;102123.18;104639;1305;60440;-84
2022/10/07 07:53:13;;;;;;;;;;;;;;;19.79;41.43;102125.54;104645;1305;60490;-83
2022/10/07 07:55:39;;;;;;;;;;;;;;;19.76;41.49;102123.85;104556;1306;60458;-83
2022/10/07 07:58:04;;;;;;;;;;;;;;;19.79;41.54;102123.95;104608;1306;60497;-83
2022/10/07 08:00:31;;;;;;;;;;;;;;;19.77;41.37;102119.90;104636;1306;60375;-84
2022/10/07 08:02:57;;;;;;;;;;;;;;;19.79;41.54;102120.36;104516;1306;72786;-84
2022/10/07 08:05:27;;;;;;;;;;;;;;;19.83;41.55;102121.45;104450;1306;60490;-85
2022/10/07 08:07:52;;;;;;;;;;;;;;;19.85;41.70;102120.64;104164;1306;60777;-84
2022/10/07 08:10:21;;;;;;;;;;;;;;;19.87;41.85;102114.65;104147;1306;60652;-84
2022/10/07 08:12:46;;;;;;;;;;;;;;;19.89;41.79;102112.59;103983;1306;72772;-83
2022/10/07 08:15:14;;;;;;;;;;;;;;;19.87;41.70;102106.99;104222;1306;60579;-84
2022/10/07 08:17:40;;;;;;;;;;;;;;;19.88;41.73;102106.76;104168;1306;61299;-86
2022/10/07 08:20:07;;;;;;;;;;;;;;;19.90;41.79;102108.09;104237;1306;60649;-83
2022/10/07 08:22:34;;;;;;;;;;;;;;;19.90;42.00;102103.80;104327;1306;71957;-83
2022/10/07 08:25:00;;;;;;;;;;;;;;;19.94;42.01;102099.34;104222;1306;73782;-83
2022/10/07 08:27:27;;;;;;;;;;;;;;;20.00;41.98;102098.91;104206;1306;60950;-81
2022/10/07 08:29:53;;;;;;;;;;;;;;;20.04;42.08;102097.42;104210;1306;60531;-83
2022/10/07 08:32:19;;;;;;;;;;;;;;;20.10;42.11;102098.78;104213;1305;60599;-84
2022/10/07 08:34:44;;;;;;;;;;;;;;;20.14;42.13;102098.40;104150;1306;60933;-82
2022/10/07 08:37:10;;;;;;;;;;;;;;;20.18;42.07;102100.54;104238;1306;60363;-83
2022/10/07 08:39:35;;;;;;;;;;;;;;;20.21;41.99;102098.98;104209;1306;60518;-83
2022/10/07 08:42:01;;;;;;;;;;;;;;;20.25;42.10;102095.76;104400;1306;60553;-82
2022/10/07 08:44:28;;;;;;;;;;;;;;;20.28;42.16;102092.57;104434;1306;59297;-83
2022/10/07 08:47:14;;;;;;;;;;;;;;;20.30;42.00;102088.01;104328;1306;75035;-82
2022/10/07 08:49:43;;;;;;;;;;;;;;;20.33;42.03;102084.11;104114;1306;60443;-83
2022/10/07 08:52:16;;;;;;;;;;;;;;;20.35;42.21;102081.50;104179;1306;60496;-83
2022/10/07 08:54:41;;;;;;;;;;;;;;;20.38;42.16;102084.42;104285;1306;73882;-83
2022/10/07 08:57:20;;;;;;;;;;;;;;;20.40;42.02;102085.03;104122;1305;62454;-84
2022/10/07 08:59:48;;;;;;;;;;;;;;;20.40;42.24;102078.93;104016;1306;60432;-85
2022/10/07 09:02:17;;;;;;;;;;;;;;;20.43;42.47;102078.82;103991;1306;60544;-84
2022/10/07 09:05:04;;;;;;;;;;;;;;;20.45;42.47;102074.27;104240;1306;73623;-83
2022/10/07 09:07:35;;;;;;;;;;;;;;;20.43;42.42;102068.41;104397;1306;72715;-85
2022/10/07 09:10:04;;;;;;;;;;;;;;;20.42;42.70;102071.17;104502;1306;61082;-83
2022/10/07 09:12:34;;;;;;;;;;;;;;;20.37;42.70;102066.38;104620;1305;60481;-84
2022/10/07 09:14:59;;;;;;;;;;;;;;;20.36;42.58;102067.91;104634;1306;71499;-83
2022/10/07 09:17:26;;;;;;;;;;;;;;;20.34;42.67;102064.23;104627;1305;60502;-83
2022/10/07 09:19:54;;;;;;;;;;;;;;;20.35;42.75;102063.09;104527;1306;60462;-84
2022/10/07 09:22:22;;;;;;;;;;;;;;;20.38;42.84;102063.88;104888;1305;60464;-83
2022/10/07 09:24:48;;;;;;;;;;;;;;;20.40;42.79;102057.33;104643;1306;72823;-83
2022/10/07 09:27:17;;;;;;;;;;;;;;;20.41;42.75;102056.19;104638;1306;60578;-84
2022/10/07 09:29:42;;;;;;;;;;;;;;;20.44;42.70;102050.89;105102;1306;60045;-83
2022/10/07 09:32:10;;;;;;;;;;;;;;;20.46;42.78;102040.95;104632;1306;60529;-83
2022/10/07 09:34:35;;;;;;;;;;;;;;;20.47;42.77;102041.98;104581;1306;72558;-83
2022/10/07 09:37:15;;;;;;;;;;;;;;;20.47;42.72;102035.88;104685;1306;60520;-85
2022/10/07 09:39:42;;;;;;;;;;;;;;;20.47;42.69;102031.75;104567;1306;60946;-83
2022/10/07 09:42:09;;;;;;;;;;;;;;;20.48;42.68;102026.55;104558;1306;61432;-84
2022/10/07 09:44:34;;;;;;;;;;;;;;;20.49;42.81;102022.91;104783;1306;72726;-83
2022/10/07 09:47:11;;;;;;;;;;;;;;;20.50;42.80;102013.73;104550;1306;59417;-85
2022/10/07 09:49:39;;;;;;;;;;;;;;;20.52;42.60;102008.11;104657;1306;59831;-83
2022/10/07 09:52:14;;;;;;;;;;;;;;;20.53;42.83;102005.38;104658;1306;61542;-83
2022/10/07 09:54:41;;;;;;;;;;;;;;;20.53;42.77;102007.50;104645;1306;72705;-83
2022/10/07 09:57:09;;;;;;;;;;;;;;;20.54;42.76;102010.69;104644;1306;60440;-85
2022/10/07 09:59:35;;;;;;;;;;;;;;;20.55;42.53;102016.16;104617;1306;60462;-84
2022/10/07 10:02:52;;;;;;;;;;;;;;;20.57;42.72;102006.04;101221;1321;599433;-79
2022/10/07 10:05:19;;;;;;;;;;;;;;;20.54;42.73;102005.15;101535;1316;59230;-80
2022/10/07 10:07:44;;;;;;;;;;;;;;;20.54;42.91;101998.69;101550;1325;60014;-81
2022/10/07 10:10:17;;;;;;;;;;;;;;;20.55;42.85;101994.18;102071;1324;57704;-82
2022/10/07 10:12:46;;;;;;;;;;;;;;;20.55;42.82;101988.80;101805;1336;72824;-81
2022/10/07 10:15:21;;;;;;;;;;;;;;;20.58;42.66;101982.36;101152;1336;768815;-81
2022/10/07 10:17:47;;;;;;;;;;;;;;;20.58;42.55;101978.79;101921;1324;61243;-81
2022/10/07 10:20:23;;;;;;;;;;;;;;;20.59;42.53;101977.18;101988;1317;58879;-81
2022/10/07 10:22:49;;;;;;;;;;;;;;;20.58;42.37;101975.39;101950;1327;72886;-82
2022/10/07 10:28:01;;;;;;;;;;;;;;;20.59;42.37;101970.89;101861;1330;59997;-82
2022/10/07 10:30:27;;;;;;;;;;;;;;;20.60;42.42;101962.41;101800;1313;60302;-82
2022/10/07 10:33:04;;;;;;;;;;;;;;;20.62;42.31;101961.99;101698;1330;59695;-82
2022/10/07 10:35:38;;;;;;;;;;;;;;;20.63;42.17;101955.84;101781;1315;73026;-82
2022/10/07 10:38:19;;;;;;;;;;;;;;;20.64;42.30;101955.09;101689;1324;59925;-83
2022/10/07 10:41:07;;;;;;;;;;;;;;;20.64;42.25;101949.16;101790;1314;61241;-82
2022/10/07 10:43:37;;;;;;;;;;;;;;;20.66;42.19;101945.71;101844;1324;73662;-83
2022/10/07 10:46:17;;;;;;;;;;;;;;;20.67;42.34;101944.23;101998;1323;72946;-83
2022/10/07 10:48:46;;;;;;;;;;;;;;;20.67;42.20;101939.20;101818;1324;60855;-83
2022/10/07 10:51:30;;;;;;;;;;;;;;;20.67;42.11;101936.34;102654;1329;60340;-84
2022/10/07 10:53:58;;;;;;;;;;;;;;;20.67;41.98;101926.65;102107;1330;72612;-83
2022/10/07 10:56:39;;;;;;;;;;;;;;;20.68;42.10;101920.53;102068;1327;74034;-81
2022/10/07 10:59:26;;;;;;;;;;;;;;;20.69;42.09;101918.70;101892;1324;59549;-83
2022/10/07 11:01:54;;;;;;;;;;;;;;;20.70;42.15;101921.71;101642;1325;60726;-82
2022/10/07 11:04:20;;;;;;;;;;;;;;;20.71;42.04;101922.92;102183;1337;73688;-83
2022/10/07 11:06:47;;;;;;;;;;;;;;;20.71;42.05;101920.05;102397;1340;57444;-83
2022/10/07 11:09:14;;;;;;;;;;;;;;;20.71;41.92;101916.64;102154;1336;57807;-82
2022/10/07 11:11:39;;;;;;;;;;;;;;;20.73;41.93;101909.22;102234;1343;60381;-82
2022/10/07 11:14:06;;;;;;;;;;;;;;;20.74;41.98;101896.82;102200;1338;57666;-83
2022/10/07 11:16:45;;;;;;;;;;;;;;;20.76;41.91;101892.60;102301;1341;58005;-83
2022/10/07 11:19:21;;;;;;;;;;;;;;;20.78;41.83;101890.55;102340;1341;60170;-83
2022/10/07 11:21:50;;;;;;;;;;;;;;;20.79;41.79;101895.16;102381;1337;60059;-83
2022/10/07 11:24:28;;;;;;;;;;;;;;;20.80;41.81;101893.48;101922;1343;73804;-82
2022/10/07 11:26:56;;;;;;;;;;;;;;;20.80;41.80;101889.34;101732;1325;73055;-83
2022/10/07 11:29:25;;;;;;;;;;;;;;;20.81;41.69;101888.95;101959;1327;61232;-82
2022/10/07 11:32:00;;;;;;;;;;;;;;;20.83;41.86;101884.91;101750;1325;60246;-83
2022/10/07 11:34:34;;;;;;;;;;;;;;;20.85;41.87;101882.85;101636;1335;73538;-83
2022/10/07 11:37:04;;;;;;;;;;;;;;;20.85;41.64;101881.05;102483;1336;73090;-84
2022/10/07 11:39:30;;;;;;;;;;;;;;;20.85;41.60;101891.08;101858;1324;60288;-82
2022/10/07 11:42:01;;;;;;;;;;;;;;;20.83;41.63;101886.50;101954;1329;59286;-83
2022/10/07 11:44:28;;;;;;;;;;;;;;;20.83;41.67;101880.27;101876;1313;73543;-81
2022/10/07 11:46:54;;;;;;;;;;;;;;;20.80;41.46;101872.36;101877;1321;74451;-82
2022/10/07 11:49:19;;;;;;;;;;;;;;;20.79;41.32;101871.54;101949;1330;59882;-83
2022/10/07 11:51:57;;;;;;;;;;;;;;;20.78;41.33;101871.40;101971;1321;59808;-82
2022/10/07 11:54:23;;;;;;;;;;;;;;;20.76;41.25;101868.42;101960;1313;72517;-82
2022/10/07 11:56:49;;;;;;;;;;;;;;;20.76;41.25;101874.86;101966;1321;59187;-82
2022/10/07 11:59:34;;;;;;;;;;;;;;;20.76;41.40;101871.83;101976;1321;60292;-82
2022/10/07 12:02:00;;;;;;;;;;;;;;;20.76;41.35;101864.87;102059;1331;61382;-82
2022/10/07 12:04:28;;;;;;;;;;;;;;;20.75;41.31;101864.17;102085;1334;59349;-82
2022/10/07 12:07:13;;;;;;;;;;;;;;;20.75;41.25;101860.98;101908;1327;73134;-82
2022/10/07 12:09:50;;;;;;;;;;;;;;;20.75;41.06;101864.73;102107;1332;59825;-82
2022/10/07 12:12:16;;;;;;;;;;;;;;;20.74;41.12;101868.90;101988;1334;60281;-82
2022/10/07 12:14:42;;;;;;;;;;;;;;;20.73;40.92;101865.55;102074;1327;59304;-82
2022/10/07 12:17:29;;;;;;;;;;;;;;;20.72;40.95;101860.77;101978;1329;59807;-82
2022/10/07 12:20:14;;;;;;;;;;;;;;;20.74;40.87;101857.30;102941;1333;59924;-82
2022/10/07 12:22:40;;;;;;;;;;;;;;;20.75;41.01;101861.17;101967;1336;61159;-82
2022/10/07 12:25:27;;;;;;;;;;;;;;;20.75;40.96;101864.71;101902;1329;59709;-82
2022/10/07 12:27:53;;;;;;;;;;;;;;;20.76;40.98;101864.88;101875;1320;71850;-82
2022/10/07 12:30:38;;;;;;;;;;;;;;;20.77;40.92;101865.02;101872;1334;59693;-81
2022/10/07 12:33:28;;;;;;;;;;;;;;;20.76;40.89;101859.13;101881;1321;60223;-82
2022/10/07 12:35:53;;;;;;;;;;;;;;;20.76;40.87;101851.61;101840;1327;72630;-81
2022/10/07 12:38:22;;;;;;;;;;;;;;;20.76;40.94;101852.34;101792;1331;59651;-81
2022/10/07 12:41:00;;;;;;;;;;;;;;;20.76;40.99;101852.70;101904;1328;60933;-81